Time,TemperatureF,DewpointF,PressureIn,WindDirection,WindDirectionDegrees,WindSpeedMPH,WindSpeedGustMPH,Humidity,HourlyPrecipIn,Conditions,Clouds,dailyrainin,SoftwareType,DateUTC
2013-02-09 00:00:00,30.7,10.3,30.20,North,1,0.0,0.0,42,0.00,CL,CL,0.00,WeatherDisplay:10.37,2013-02-09 05:00:00,
2013-02-09 00:03:00,32.2,-1.5,30.23,ENE,73,2.0,4.0,23,0.00,CLR,CLR,0.00,WeatherDisplay:10.37,2013-02-09 05:03:00,
2013-02-09 00:18:00,32.2,-1.5,30.23,ENE,59,1.0,4.0,23,0.00,CLR,CLR,0.00,WeatherDisplay:10.37,2013-02-09 05:18:00,
2013-02-09 00:33:00,32.0,-1.7,30.23,NE,55,1.0,2.0,23,0.00,CLR,CLR,0.00,WeatherDisplay:10.37,2013-02-09 05:33:00,
2013-02-09 00:48:00,31.8,-1.8,30.26,East,80,1.0,4.0,23,0.00,CLR,CLR,0.00,WeatherDisplay:10.37,2013-02-09 05:48:00,
2013-02-09 01:00:00,30.6,9.6,30.20,North,1,0.0,0.0,41,0.00,CL,CL,0.00,WeatherDisplay:10.37,2013-02-09 06:00:00,
2013-02-09 01:03:00,31.6,-2.0,30.26,ENE,76,3.0,4.0,23,0.00,CLR,CLR,0.00,WeatherDisplay:10.37,2013-02-09 06:03:00,
2013-02-09 01:18:00,31.3,-2.3,30.26,ENE,78,2.0,4.0,23,0.00,CLR,CLR,0.00,WeatherDisplay:10.37,2013-02-09 06:18:00,
2013-02-09 01:33:00,30.2,-3.2,30.26,NE,43,1.0,3.0,23,0.00,CLR,CLR,0.00,WeatherDisplay:10.37,2013-02-09 06:33:00,
2013-02-09 01:48:00,28.9,-4.3,30.26,NE,45,0.0,2.0,23,0.00,CLR,CLR,0.00,WeatherDisplay:10.37,2013-02-09 06:48:00,
2013-02-09 02:00:00,30.0,9.7,30.20,North,1,0.0,0.0,42,0.00,CL,CL,0.00,WeatherDisplay:10.37,2013-02-09 07:00:00,
2013-02-09 02:03:00,28.2,-4.9,30.26,NE,45,0.0,1.0,23,0.00,CLR,CLR,0.00,WeatherDisplay:10.37,2013-02-09 07:03:00,
2013-02-09 02:18:00,27.9,-5.2,30.26,NE,45,1.0,2.0,23,0.00,CLR,CLR,0.00,WeatherDisplay:10.37,2013-02-09 07:18:00,
2013-02-09 02:33:00,27.0,-6.0,30.26,NE,45,0.0,1.0,23,0.00,CLR,CLR,0.00,WeatherDisplay:10.37,2013-02-09 07:33:00,
2013-02-09 02:48:00,26.4,-3.9,30.26,NE,45,0.0,1.0,26,0.00,CLR,CLR,0.00,WeatherDisplay:10.37,2013-02-09 07:48:00,
2013-02-09 03:00:00,30.0,28.0,30.23,North,1,0.0,0.0,92,0.00,CL,CL,0.00,WeatherDisplay:10.37,2013-02-09 08:00:00,
2013-02-09 03:03:00,26.4,-3.9,30.26,NE,45,1.0,2.0,26,0.00,CLR,CLR,0.00,WeatherDisplay:10.37,2013-02-09 08:03:00,
2013-02-09 04:00:00,31.5,28.0,30.26,North,1,0.0,0.0,87,0.00,CL,CL,0.00,WeatherDisplay:10.37,2013-02-09 09:00:00,
2013-02-09 05:00:00,33.8,27.0,30.26,North,1,0.0,0.0,76,0.00,CL,CL,0.00,WeatherDisplay:10.37,2013-02-09 10:00:00,
2013-02-09 06:00:00,39.9,29.8,30.23,North,1,0.0,0.0,67,0.00,CL,CL,0.00,WeatherDisplay:10.37,2013-02-09 11:00:00,
2013-02-09 07:00:00,36.9,27.3,30.23,North,1,0.0,0.0,68,0.00,CL,CL,0.00,WeatherDisplay:10.37,2013-02-09 12:00:00,
2013-02-09 08:00:00,37.6,27.6,30.20,North,1,0.0,0.0,67,0.00,CL,CL,0.00,WeatherDisplay:10.37,2013-02-09 13:00:00,
2013-02-09 08:14:00,26.6,13.0,30.26,NE,45,4.7,0.0,56,0.00,OVC,,0.00,WeatherDisplay:10.37,2013-02-09 13:14:00,
2013-02-09 08:15:00,26.8,18.3,30.26,NE,45,0.0,0.0,70,0.00,OVC,,0.00,WeatherDisplay:10.37,2013-02-09 13:15:00,
2013-02-09 08:20:00,27.0,18.5,30.26,NE,45,0.0,0.0,70,0.00,FEW,,0.00,WeatherDisplay:10.37,2013-02-09 13:20:00,
2013-02-09 08:25:00,27.1,18.6,30.26,NE,45,2.3,0.0,70,0.00,FEW,,0.00,WeatherDisplay:10.37,2013-02-09 13:25:00,
2013-02-09 08:30:00,27.7,20.2,30.26,NE,45,1.6,1.6,73,0.00,FEW,,0.00,WeatherDisplay:10.37,2013-02-09 13:30:00,
2013-02-09 08:35:00,28.0,20.5,30.26,NE,45,2.3,2.3,73,0.00,FEW,,0.00,WeatherDisplay:10.37,2013-02-09 13:35:00,
2013-02-09 08:40:00,28.4,20.8,30.26,NE,45,3.5,3.5,73,0.00,FEW,,0.00,WeatherDisplay:10.37,2013-02-09 13:40:00,
2013-02-09 08:45:00,28.8,20.2,30.26,North,0,2.3,2.3,70,0.00,FEW,,0.00,WeatherDisplay:10.37,2013-02-09 13:45:00,
2013-02-09 08:50:00,29.1,20.6,30.26,NE,45,2.3,2.3,70,0.00,FEW,,0.00,WeatherDisplay:10.37,2013-02-09 13:50:00,
2013-02-09 08:55:00,29.5,20.9,30.26,East,90,2.3,2.3,70,0.00,FEW,,0.00,WeatherDisplay:10.37,2013-02-09 13:55:00,
2013-02-09 09:00:00,29.8,21.2,30.26,NE,45,2.3,2.3,70,0.00,FEW,,0.00,WeatherDisplay:10.37,2013-02-09 14:00:00,
2013-02-09 09:05:00,30.2,20.6,30.26,East,90,3.5,3.5,67,0.00,CLR,,0.00,WeatherDisplay:10.37,2013-02-09 14:05:00,
2013-02-09 09:10:00,30.4,20.7,30.26,NE,45,3.3,3.3,67,0.00,CLR,,0.00,WeatherDisplay:10.37,2013-02-09 14:10:00,
2013-02-09 09:15:00,30.7,21.1,30.26,East,90,2.6,2.6,67,0.00,CLR,,0.00,WeatherDisplay:10.37,2013-02-09 14:15:00,
2013-02-09 09:20:00,31.1,21.4,30.26,NE,45,3.5,3.5,67,0.00,CLR,,0.00,WeatherDisplay:10.37,2013-02-09 14:20:00,
2013-02-09 09:25:00,31.5,21.8,30.26,East,90,4.6,4.6,67,0.00,CLR,,0.00,WeatherDisplay:10.37,2013-02-09 14:25:00,
2013-02-09 09:31:00,32.2,22.4,30.26,East,90,3.5,3.5,67,0.00,CLR,,0.00,WeatherDisplay:10.37,2013-02-09 14:31:00,
2013-02-09 09:36:00,32.5,22.8,30.23,East,90,2.4,2.4,67,0.00,CLR,,0.00,WeatherDisplay:10.37,2013-02-09 14:36:00,
2013-02-09 09:41:00,32.7,22.2,30.23,East,90,4.6,4.6,65,0.00,CLR,,0.00,WeatherDisplay:10.37,2013-02-09 14:41:00,
2013-02-09 09:46:00,33.3,22.8,30.23,East,90,5.4,5.4,65,0.00,CLR,,0.00,WeatherDisplay:10.37,2013-02-09 14:46:00,
2013-02-09 09:51:00,33.3,22.8,30.26,East,90,4.6,4.6,65,0.00,CLR,,0.00,WeatherDisplay:10.37,2013-02-09 14:51:00,
2013-02-09 09:56:00,34.0,23.1,30.26,East,90,3.8,3.8,64,0.00,CLR,,0.00,WeatherDisplay:10.37,2013-02-09 14:56:00,
2013-02-09 10:00:00,36.9,27.3,30.14,North,1,0.0,0.0,68,0.00,CL,CL,0.00,WeatherDisplay:10.37,2013-02-09 15:00:00,
2013-02-09 10:01:00,34.3,23.4,30.26,East,90,4.6,4.6,64,0.00,CLR,,0.00,WeatherDisplay:10.37,2013-02-09 15:01:00,
2013-02-09 10:06:00,34.9,23.9,30.23,East,90,3.8,3.8,64,0.00,CLR,,0.00,WeatherDisplay:10.37,2013-02-09 15:06:00,
2013-02-09 10:11:00,35.4,24.4,30.23,NE,45,6.0,6.0,64,0.00,CLR,,0.00,WeatherDisplay:10.37,2013-02-09 15:11:00,
2013-02-09 10:16:00,36.0,25.0,30.23,ENE,68,4.9,4.9,64,0.00,CLR,,0.00,WeatherDisplay:10.37,2013-02-09 15:16:00,
2013-02-09 10:21:00,36.1,25.1,30.26,East,90,3.6,3.6,64,0.00,CLR,,0.00,WeatherDisplay:10.37,2013-02-09 15:21:00,
2013-02-09 10:26:00,36.9,25.8,30.26,East,90,5.8,5.8,64,0.00,CLR,,0.00,WeatherDisplay:10.37,2013-02-09 15:26:00,
2013-02-09 10:31:00,37.4,25.9,30.26,NE,45,3.5,3.5,63,0.00,CLR,,0.00,WeatherDisplay:10.37,2013-02-09 15:31:00,
2013-02-09 10:36:00,37.6,26.1,30.26,NE,45,3.5,3.5,63,0.00,CLR,,0.00,WeatherDisplay:10.37,2013-02-09 15:36:00,
2013-02-09 10:41:00,37.8,26.3,30.26,NNE,22,6.9,6.9,63,0.00,CLR,,0.00,WeatherDisplay:10.37,2013-02-09 15:41:00,
2013-02-09 10:46:00,38.5,27.0,30.26,East,90,4.3,4.3,63,0.00,CLR,,0.00,WeatherDisplay:10.37,2013-02-09 15:46:00,
2013-02-09 10:51:00,38.7,27.1,30.26,NE,45,4.6,4.6,63,0.00,CLR,,0.00,WeatherDisplay:10.37,2013-02-09 15:51:00,
2013-02-09 10:56:00,39.4,27.8,30.26,NE,45,3.5,3.5,63,0.00,CLR,,0.00,WeatherDisplay:10.37,2013-02-09 15:56:00,
2013-02-09 11:00:00,36.9,27.3,30.14,North,1,0.0,0.0,68,0.00,CL,CL,0.00,WeatherDisplay:10.37,2013-02-09 16:00:00,
2013-02-09 11:01:00,40.1,28.5,30.26,NE,45,2.3,2.3,63,0.00,CLR,,0.00,WeatherDisplay:10.37,2013-02-09 16:01:00,
2013-02-09 11:06:00,40.6,29.0,30.26,NE,45,4.6,4.6,63,0.00,CLR,,0.00,WeatherDisplay:10.37,2013-02-09 16:06:00,
2013-02-09 11:11:00,41.5,29.9,30.26,East,90,2.2,2.2,63,0.00,CLR,,0.00,WeatherDisplay:10.37,2013-02-09 16:11:00,
2013-02-09 11:16:00,41.7,30.0,30.26,East,90,2.3,2.3,63,0.00,CLR,,0.00,WeatherDisplay:10.37,2013-02-09 16:16:00,
2013-02-09 11:21:00,42.6,30.9,30.26,NE,45,3.6,3.6,63,0.00,CLR,,0.00,WeatherDisplay:10.37,2013-02-09 16:21:00,
2013-02-09 11:26:00,42.4,30.7,30.26,East,90,4.6,4.6,63,0.00,CLR,,0.00,WeatherDisplay:10.37,2013-02-09 16:26:00,
2013-02-09 11:30:00,43.7,31.5,30.26,SE,135,2.9,2.9,62,0.00,CLR,,0.00,WeatherDisplay:10.37,2013-02-09 16:30:00,
2013-02-09 11:35:00,44.2,32.0,30.26,SE,135,2.3,2.3,62,0.00,CLR,,0.00,WeatherDisplay:10.37,2013-02-09 16:35:00,
2013-02-09 11:40:00,44.8,32.5,30.26,SE,135,3.5,3.5,62,0.00,CLR,,0.00,WeatherDisplay:10.37,2013-02-09 16:40:00,
2013-02-09 11:45:00,45.7,33.4,30.26,NE,45,4.9,4.9,62,0.00,CLR,,0.00,WeatherDisplay:10.37,2013-02-09 16:45:00,
2013-02-09 11:50:00,44.8,32.5,30.23,East,90,4.6,4.6,62,0.00,CLR,,0.00,WeatherDisplay:10.37,2013-02-09 16:50:00,
2013-02-09 11:55:00,45.0,32.7,30.23,East,90,3.5,3.5,62,0.00,CLR,,0.00,WeatherDisplay:10.37,2013-02-09 16:55:00,
2013-02-09 12:00:00,45.0,32.7,30.23,NE,45,4.9,4.9,62,0.00,CLR,,0.00,WeatherDisplay:10.37,2013-02-09 17:00:00,
2013-02-09 12:05:00,46.0,33.7,30.23,NE,45,5.4,5.4,62,0.00,CLR,,0.00,WeatherDisplay:10.37,2013-02-09 17:05:00,
2013-02-09 12:11:00,45.3,33.1,30.23,East,90,4.6,4.6,62,0.00,CLR,,0.00,WeatherDisplay:10.37,2013-02-09 17:11:00,
2013-02-09 12:16:00,46.2,33.9,30.23,NE,45,3.5,3.5,62,0.00,CLR,,0.00,WeatherDisplay:10.37,2013-02-09 17:16:00,
2013-02-09 12:21:00,47.8,35.0,30.26,East,90,2.4,2.4,61,0.00,CLR,,0.00,WeatherDisplay:10.37,2013-02-09 17:21:00,
2013-02-09 12:26:00,48.7,35.9,30.26,NNE,22,3.8,3.8,61,0.00,CLR,,0.00,WeatherDisplay:10.37,2013-02-09 17:26:00,
2013-02-09 12:31:00,48.7,35.9,30.26,SE,135,4.6,4.6,61,0.00,CLR,,0.00,WeatherDisplay:10.37,2013-02-09 17:31:00,
2013-02-09 12:36:00,47.7,34.9,30.26,NE,45,3.8,3.8,61,0.00,CLR,,0.00,WeatherDisplay:10.37,2013-02-09 17:36:00,
2013-02-09 12:41:00,48.7,35.9,30.26,East,90,4.6,4.6,61,0.00,CLR,,0.00,WeatherDisplay:10.37,2013-02-09 17:41:00,
2013-02-09 12:46:00,49.6,36.7,30.26,East,90,2.4,2.4,61,0.00,CLR,,0.00,WeatherDisplay:10.37,2013-02-09 17:46:00,
2013-02-09 12:51:00,48.6,35.7,30.23,East,90,4.6,4.6,61,0.00,CLR,,0.00,WeatherDisplay:10.37,2013-02-09 17:51:00,
2013-02-09 12:56:00,49.6,36.7,30.23,East,90,4.6,4.6,61,0.00,CLR,,0.00,WeatherDisplay:10.37,2013-02-09 17:56:00,
2013-02-09 13:00:00,33.8,27.0,30.14,North,1,0.0,0.0,76,0.00,CL,CL,0.00,WeatherDisplay:10.37,2013-02-09 18:00:00,
2013-02-09 13:01:00,50.0,37.1,30.23,NE,45,3.5,3.5,61,0.00,CLR,,0.00,WeatherDisplay:10.37,2013-02-09 18:01:00,
2013-02-09 13:06:00,49.1,36.2,30.23,NE,45,3.5,3.5,61,0.00,CLR,,0.00,WeatherDisplay:10.37,2013-02-09 18:06:00,
2013-02-09 13:11:00,49.8,36.9,30.23,East,90,3.8,3.8,61,0.00,CLR,,0.00,WeatherDisplay:10.37,2013-02-09 18:11:00,
2013-02-09 13:16:00,50.7,37.8,30.23,East,90,3.6,3.6,61,0.00,CLR,,0.00,WeatherDisplay:10.37,2013-02-09 18:16:00,
2013-02-09 13:21:00,50.4,37.4,30.23,East,90,4.9,4.9,61,0.00,CLR,,0.00,WeatherDisplay:10.37,2013-02-09 18:21:00,
2013-02-09 13:26:00,49.5,36.6,30.23,East,90,4.6,4.6,61,0.00,CLR,,0.00,WeatherDisplay:10.37,2013-02-09 18:26:00,
2013-02-09 13:31:00,50.4,37.4,30.23,East,90,2.6,2.6,61,0.00,CLR,,0.00,WeatherDisplay:10.37,2013-02-09 18:31:00,
2013-02-09 13:36:00,51.4,38.4,30.20,SE,135,4.6,4.6,61,0.00,CLR,,0.00,WeatherDisplay:10.37,2013-02-09 18:36:00,
2013-02-09 13:41:00,52.3,38.9,30.20,East,90,3.5,3.5,60,0.00,CLR,,0.00,WeatherDisplay:10.37,2013-02-09 18:41:00,
2013-02-09 13:46:00,53.1,39.5,30.20,ENE,68,2.3,2.3,60,0.00,CLR,,0.00,WeatherDisplay:10.37,2013-02-09 18:46:00,
2013-02-09 13:51:00,52.2,38.7,30.17,NNE,22,4.6,4.6,60,0.00,CLR,,0.00,WeatherDisplay:10.37,2013-02-09 18:51:00,
2013-02-09 13:56:00,51.4,38.4,30.17,East,90,5.8,5.8,61,0.00,CLR,,0.00,WeatherDisplay:10.37,2013-02-09 18:56:00,
2013-02-09 14:00:00,32.2,26.4,30.17,North,1,0.0,0.0,79,0.00,CL,CL,0.00,WeatherDisplay:10.37,2013-02-09 19:00:00,
2013-02-09 14:01:00,52.2,38.7,30.17,East,90,3.5,3.5,60,0.00,CLR,,0.00,WeatherDisplay:10.37,2013-02-09 19:01:00,
2013-02-09 14:06:00,52.5,39.0,30.20,NE,45,4.9,4.9,60,0.00,CLR,,0.00,WeatherDisplay:10.37,2013-02-09 19:06:00,
2013-02-09 14:11:00,51.4,38.4,30.20,East,90,4.6,4.6,61,0.00,CLR,,0.00,WeatherDisplay:10.37,2013-02-09 19:11:00,
2013-02-09 14:16:00,50.9,37.9,30.20,NE,45,5.9,5.9,61,0.00,CLR,,0.00,WeatherDisplay:10.37,2013-02-09 19:16:00,
2013-02-09 14:21:00,50.7,37.8,30.23,East,90,6.2,6.2,61,0.00,CLR,,0.00,WeatherDisplay:10.37,2013-02-09 19:21:00,
2013-02-09 14:26:00,52.0,38.5,30.23,SE,135,2.4,2.4,60,0.00,CLR,,0.00,WeatherDisplay:10.37,2013-02-09 19:26:00,
2013-02-09 14:31:00,52.3,38.9,30.23,ENE,68,3.6,3.6,60,0.00,CLR,,0.00,WeatherDisplay:10.37,2013-02-09 19:31:00,
2013-02-09 14:36:00,51.6,38.6,30.20,East,90,3.5,3.5,61,0.00,CLR,,0.00,WeatherDisplay:10.37,2013-02-09 19:36:00,
2013-02-09 14:41:00,52.5,39.0,30.20,SE,135,3.5,3.5,60,0.00,CLR,,0.00,WeatherDisplay:10.37,2013-02-09 19:41:00,
2013-02-09 14:46:00,52.2,38.7,30.20,SE,135,4.6,4.6,60,0.00,CLR,,0.00,WeatherDisplay:10.37,2013-02-09 19:46:00,
2013-02-09 14:51:00,52.3,38.9,30.20,East,90,3.5,3.5,60,0.00,CLR,,0.00,WeatherDisplay:10.37,2013-02-09 19:51:00,
2013-02-09 14:56:00,52.0,38.5,30.20,SE,135,4.6,4.6,60,0.00,CLR,,0.00,WeatherDisplay:10.37,2013-02-09 19:56:00,
2013-02-09 15:00:00,31.8,26.0,30.14,North,1,0.0,0.0,79,0.00,CL,CL,0.00,WeatherDisplay:10.37,2013-02-09 20:00:00,
2013-02-09 15:01:00,52.9,39.4,30.20,SE,135,3.5,3.5,60,0.00,CLR,,0.00,WeatherDisplay:10.37,2013-02-09 20:01:00,
2013-02-09 15:06:00,52.7,39.2,30.17,East,90,3.5,3.5,60,0.00,CLR,,0.00,WeatherDisplay:10.37,2013-02-09 20:06:00,
2013-02-09 15:11:00,53.2,39.7,30.17,East,90,4.9,4.9,60,0.00,CLR,,0.00,WeatherDisplay:10.37,2013-02-09 20:11:00,
2013-02-09 15:16:00,53.4,39.9,30.17,East,90,3.5,3.5,60,0.00,CLR,,0.00,WeatherDisplay:10.37,2013-02-09 20:16:00,
2013-02-09 15:21:00,53.1,39.5,30.20,SE,135,4.6,4.6,60,0.00,CLR,,0.00,WeatherDisplay:10.37,2013-02-09 20:21:00,
2013-02-09 15:26:00,53.6,40.0,30.20,East,90,4.6,4.6,60,0.00,CLR,,0.00,WeatherDisplay:10.37,2013-02-09 20:26:00,
2013-02-09 15:31:00,53.6,40.0,30.20,NE,45,4.6,4.6,60,0.00,CLR,,0.00,WeatherDisplay:10.37,2013-02-09 20:31:00,
2013-02-09 15:36:00,53.1,39.5,30.17,SE,135,3.5,3.5,60,0.00,CLR,,0.00,WeatherDisplay:10.37,2013-02-09 20:36:00,
2013-02-09 15:41:00,52.9,39.4,30.17,East,90,3.5,3.5,60,0.00,CLR,,0.00,WeatherDisplay:10.37,2013-02-09 20:41:00,
2013-02-09 15:46:00,53.6,40.0,30.17,SE,135,3.5,3.5,60,0.00,CLR,,0.00,WeatherDisplay:10.37,2013-02-09 20:46:00,
2013-02-09 15:51:00,53.6,40.0,30.17,East,90,4.6,4.6,60,0.00,CLR,,0.00,WeatherDisplay:10.37,2013-02-09 20:51:00,
2013-02-09 15:56:00,53.2,39.7,30.17,East,90,3.5,3.5,60,0.00,CLR,,0.00,WeatherDisplay:10.37,2013-02-09 20:56:00,
2013-02-09 16:00:00,31.6,25.6,30.14,North,1,0.0,0.0,78,0.00,CL,CL,0.00,WeatherDisplay:10.37,2013-02-09 21:00:00,
2013-02-09 16:01:00,53.8,40.2,30.17,East,90,3.5,3.5,60,0.00,CLR,,0.00,WeatherDisplay:10.37,2013-02-09 21:01:00,
2013-02-09 16:06:00,53.2,39.7,30.17,SE,135,4.6,4.6,60,0.00,CLR,,0.00,WeatherDisplay:10.37,2013-02-09 21:06:00,
2013-02-09 16:11:00,52.7,39.2,30.17,East,90,4.6,4.6,60,0.00,CLR,,0.00,WeatherDisplay:10.37,2013-02-09 21:11:00,
2013-02-09 16:16:00,52.3,38.9,30.17,East,90,3.5,3.5,60,0.00,CLR,,0.00,WeatherDisplay:10.37,2013-02-09 21:16:00,
2013-02-09 16:21:00,52.5,39.0,30.14,East,90,3.5,3.5,60,0.00,CLR,,0.00,WeatherDisplay:10.37,2013-02-09 21:21:00,
2013-02-09 16:26:00,52.5,39.0,30.14,ENE,68,4.5,4.5,60,0.00,CLR,,0.00,WeatherDisplay:10.37,2013-02-09 21:26:00,
2013-02-09 16:31:00,51.6,38.6,30.14,SE,135,4.6,4.6,61,0.00,CLR,,0.00,WeatherDisplay:10.37,2013-02-09 21:31:00,
2013-02-09 16:36:00,51.6,38.6,30.14,East,90,3.8,3.8,61,0.00,CLR,,0.00,WeatherDisplay:10.37,2013-02-09 21:36:00,
2013-02-09 16:41:00,51.3,38.3,30.14,East,90,3.6,3.6,61,0.00,CLR,,0.00,WeatherDisplay:10.37,2013-02-09 21:41:00,
2013-02-09 16:46:00,50.7,37.8,30.14,East,90,4.6,4.6,61,0.00,CLR,,0.00,WeatherDisplay:10.37,2013-02-09 21:46:00,
2013-02-09 16:51:00,50.4,37.4,30.14,East,90,4.0,4.0,61,0.00,CLR,,0.00,WeatherDisplay:10.37,2013-02-09 21:51:00,
2013-02-09 16:56:00,49.5,36.6,30.14,East,90,5.8,5.8,61,0.00,CLR,,0.00,WeatherDisplay:10.37,2013-02-09 21:56:00,
2013-02-09 17:00:00,30.9,24.6,30.14,North,1,0.0,0.0,77,0.00,CL,CL,0.00,WeatherDisplay:10.37,2013-02-09 22:00:00,
2013-02-09 17:01:00,49.1,36.2,30.14,East,90,3.5,3.5,61,0.00,CLR,,0.00,WeatherDisplay:10.37,2013-02-09 22:01:00,
2013-02-09 17:06:00,48.2,35.4,30.14,NE,45,4.6,4.6,61,0.00,CLR,,0.00,WeatherDisplay:10.37,2013-02-09 22:06:00,
2013-02-09 17:11:00,47.5,34.7,30.14,East,90,4.6,4.6,61,0.00,CLR,,0.00,WeatherDisplay:10.37,2013-02-09 22:11:00,
2013-02-09 17:16:00,47.1,34.4,30.14,East,90,3.5,3.5,61,0.00,CLR,,0.00,WeatherDisplay:10.37,2013-02-09 22:16:00,
2013-02-09 17:21:00,46.8,34.0,30.14,East,90,4.6,4.6,61,0.00,CLR,,0.00,WeatherDisplay:10.37,2013-02-09 22:21:00,
2013-02-09 17:26:00,46.6,33.8,30.14,East,90,2.3,2.4,61,0.00,CLR,,0.00,WeatherDisplay:10.37,2013-02-09 22:26:00,
2013-02-09 17:31:00,46.0,33.7,30.14,East,90,2.3,2.4,62,0.00,CLR,,0.00,WeatherDisplay:10.37,2013-02-09 22:31:00,
2013-02-09 17:36:00,45.7,33.4,30.14,East,90,3.8,3.8,62,0.00,CLR,,0.00,WeatherDisplay:10.37,2013-02-09 22:36:00,
2013-02-09 17:41:00,45.3,33.1,30.14,East,90,3.5,3.5,62,0.00,CLR,,0.00,WeatherDisplay:10.37,2013-02-09 22:41:00,
2013-02-09 17:46:00,45.0,32.7,30.14,ENE,68,3.5,3.5,62,0.00,CLR,,0.00,WeatherDisplay:10.37,2013-02-09 22:46:00,
2013-02-09 17:51:00,44.8,32.5,30.11,NE,45,3.5,3.5,62,0.00,CLR,,0.00,WeatherDisplay:10.37,2013-02-09 22:51:00,
2013-02-09 17:56:00,44.4,32.2,30.11,NE,45,3.1,3.1,62,0.00,CLR,,0.00,WeatherDisplay:10.37,2013-02-09 22:56:00,
2013-02-09 18:00:00,27.9,22.5,30.14,North,1,0.0,0.0,80,0.00,CL,CL,0.00,WeatherDisplay:10.37,2013-02-09 23:00:00,
2013-02-09 18:01:00,44.1,31.9,30.11,NE,45,2.4,2.4,62,0.00,CLR,,0.00,WeatherDisplay:10.37,2013-02-09 23:01:00,
2013-02-09 18:06:00,43.5,31.4,30.14,East,90,2.3,2.3,62,0.00,CLR,,0.00,WeatherDisplay:10.37,2013-02-09 23:06:00,
2013-02-09 18:11:00,43.3,31.2,30.14,East,90,2.4,2.4,62,0.00,CLR,,0.00,WeatherDisplay:10.37,2013-02-09 23:11:00,
2013-02-09 18:16:00,43.2,31.0,30.14,ENE,68,3.5,3.5,62,0.00,CLR,,0.00,WeatherDisplay:10.37,2013-02-09 23:16:00,
2013-02-09 18:21:00,42.8,30.7,30.14,NE,45,2.9,2.9,62,0.00,CLR,,0.00,WeatherDisplay:10.37,2013-02-09 23:21:00,
2013-02-09 18:26:00,42.8,30.7,30.14,East,90,3.5,3.5,62,0.00,CLR,,0.00,WeatherDisplay:10.37,2013-02-09 23:26:00,
2013-02-09 18:31:00,42.4,30.7,30.14,East,90,4.6,4.6,63,0.00,CLR,,0.00,WeatherDisplay:10.37,2013-02-09 23:31:00,
2013-02-09 18:36:00,42.3,30.6,30.14,East,90,3.5,3.5,63,0.00,CLR,,0.00,WeatherDisplay:10.37,2013-02-09 23:36:00,
2013-02-09 18:41:00,41.9,30.2,30.14,NE,45,3.5,3.5,63,0.00,CLR,,0.00,WeatherDisplay:10.37,2013-02-09 23:41:00,
2013-02-09 18:46:00,41.9,30.2,30.14,ENE,68,3.5,3.5,63,0.00,CLR,,0.00,WeatherDisplay:10.37,2013-02-09 23:46:00,
2013-02-09 18:51:00,41.7,30.0,30.14,ENE,68,3.5,3.5,63,0.00,CLR,,0.00,WeatherDisplay:10.37,2013-02-09 23:51:00,
2013-02-09 18:56:00,41.5,29.9,30.14,East,90,2.3,2.3,63,0.00,CLR,,0.00,WeatherDisplay:10.37,2013-02-09 23:56:00,
2013-02-09 19:00:00,26.1,7.1,30.11,North,1,1.0,1.0,44,0.00,CL,CL,0.00,WeatherDisplay:10.37,2013-02-10 00:00:00,
2013-02-09 19:01:00,41.2,29.5,30.14,East,90,2.3,2.3,63,0.00,CLR,,0.00,WeatherDisplay:10.37,2013-02-10 00:01:00,
2013-02-09 19:06:00,41.0,29.4,30.14,NE,45,2.3,2.3,63,0.00,CLR,,0.00,WeatherDisplay:10.37,2013-02-10 00:06:00,
2013-02-09 19:11:00,40.8,29.2,30.14,East,90,3.5,3.5,63,0.00,CLR,,0.00,WeatherDisplay:10.37,2013-02-10 00:11:00,
2013-02-09 19:16:00,40.8,29.2,30.14,East,90,3.5,3.5,63,0.00,CLR,,0.00,WeatherDisplay:10.37,2013-02-10 00:16:00,
2013-02-09 19:21:00,40.6,29.0,30.14,NE,45,3.5,3.5,63,0.00,CLR,,0.00,WeatherDisplay:10.37,2013-02-10 00:21:00,
2013-02-09 19:26:00,40.6,29.0,30.14,NE,45,3.5,3.5,63,0.00,CLR,,0.00,WeatherDisplay:10.37,2013-02-10 00:26:00,
2013-02-09 19:31:00,40.6,29.0,30.14,NE,45,3.5,3.5,63,0.00,CLR,,0.00,WeatherDisplay:10.37,2013-02-10 00:31:00,
2013-02-09 19:33:00,37.9,1.4,30.08,ENE,75,2.0,3.0,21,0.00,CLR,CLR,0.00,WeatherDisplay:10.37,2013-02-10 00:33:00,
2013-02-09 19:36:00,40.5,28.8,30.11,NE,45,2.4,2.4,63,0.00,CLR,,0.00,WeatherDisplay:10.37,2013-02-10 00:36:00,
2013-02-09 19:41:00,40.5,28.8,30.11,East,90,3.5,3.5,63,0.00,CLR,,0.00,WeatherDisplay:10.37,2013-02-10 00:41:00,
2013-02-09 19:46:00,40.3,28.7,30.11,East,90,3.5,3.5,63,0.00,CLR,,0.00,WeatherDisplay:10.37,2013-02-10 00:46:00,
2013-02-09 19:48:00,38.1,1.6,30.08,ENE,71,2.0,5.0,21,0.00,CLR,CLR,0.00,WeatherDisplay:10.37,2013-02-10 00:48:00,
2013-02-09 19:51:00,39.9,28.3,30.11,NE,45,2.6,2.6,63,0.00,CLR,,0.00,WeatherDisplay:10.37,2013-02-10 00:51:00,
2013-02-09 19:56:00,39.9,28.3,30.11,ENE,68,3.5,3.5,63,0.00,CLR,,0.00,WeatherDisplay:10.37,2013-02-10 00:56:00,
2013-02-09 20:00:00,25.2,6.3,30.11,North,1,1.0,1.0,44,0.00,CL,CL,0.00,WeatherDisplay:10.37,2013-02-10 01:00:00,
2013-02-09 20:01:00,39.7,28.2,30.11,ENE,68,3.5,3.5,63,0.00,CLR,,0.00,WeatherDisplay:10.37,2013-02-10 01:01:00,
2013-02-09 20:03:00,38.1,1.6,30.05,ENE,58,2.0,4.0,21,0.00,CLR,CLR,0.00,WeatherDisplay:10.37,2013-02-10 01:03:00,
2013-02-09 20:06:00,39.7,28.2,30.11,NE,45,3.5,3.5,63,0.00,CLR,,0.00,WeatherDisplay:10.37,2013-02-10 01:06:00,
2013-02-09 20:11:00,39.4,27.8,30.11,ENE,68,3.5,3.5,63,0.00,CLR,,0.00,WeatherDisplay:10.37,2013-02-10 01:11:00,
2013-02-09 20:16:00,39.4,27.8,30.11,NE,45,3.5,3.5,63,0.00,FEW,,0.00,WeatherDisplay:10.37,2013-02-10 01:16:00,
2013-02-09 20:18:00,38.3,1.7,30.05,East,84,2.0,3.0,21,0.00,CLR,CLR,0.00,WeatherDisplay:10.37,2013-02-10 01:18:00,
2013-02-09 20:21:00,39.2,27.7,30.11,East,90,4.6,4.6,63,0.00,FEW,,0.00,WeatherDisplay:10.37,2013-02-10 01:21:00,
2013-02-09 20:26:00,39.2,27.7,30.11,NE,45,3.5,3.5,63,0.00,FEW,,0.00,WeatherDisplay:10.37,2013-02-10 01:26:00,
2013-02-09 20:31:00,39.0,27.5,30.11,NE,45,4.6,4.6,63,0.00,FEW,,0.00,WeatherDisplay:10.37,2013-02-10 01:31:00,
2013-02-09 20:33:00,38.5,1.9,30.05,East,90,2.0,3.0,21,0.00,CLR,CLR,0.00,WeatherDisplay:10.37,2013-02-10 01:33:00,
2013-02-09 20:36:00,39.0,27.5,30.11,NE,45,3.8,3.8,63,0.00,FEW,,0.00,WeatherDisplay:10.37,2013-02-10 01:36:00,
2013-02-09 20:41:00,38.8,27.3,30.11,NE,45,4.6,4.6,63,0.00,FEW,,0.00,WeatherDisplay:10.37,2013-02-10 01:41:00,
2013-02-09 20:46:00,38.8,27.3,30.11,NE,45,3.5,3.5,63,0.00,FEW,,0.00,WeatherDisplay:10.37,2013-02-10 01:46:00,
2013-02-09 20:48:00,38.8,2.2,30.05,East,100,2.0,3.0,21,0.00,CLR,CLR,0.00,WeatherDisplay:10.37,2013-02-10 01:48:00,
2013-02-09 20:51:00,38.7,27.1,30.11,NE,45,3.5,3.5,63,0.00,FEW,,0.00,WeatherDisplay:10.37,2013-02-10 01:51:00,
2013-02-09 20:56:00,38.5,27.0,30.11,NE,45,3.5,3.5,63,0.00,FEW,,0.00,WeatherDisplay:10.37,2013-02-10 01:56:00,
2013-02-09 21:00:00,25.2,6.8,30.08,NNE,14,0.0,0.0,45,0.00,CL,CL,0.00,WeatherDisplay:10.37,2013-02-10 02:00:00,
2013-02-09 21:01:00,38.7,27.1,30.11,NE,45,4.6,4.6,63,0.00,CLR,,0.00,WeatherDisplay:10.37,2013-02-10 02:01:00,
2013-02-09 21:03:00,39.2,2.5,30.05,East,94,2.0,3.0,21,0.00,CLR,CLR,0.00,WeatherDisplay:10.37,2013-02-10 02:03:00,
2013-02-09 21:06:00,38.7,27.1,30.11,NE,45,3.5,3.5,63,0.00,CLR,,0.00,WeatherDisplay:10.37,2013-02-10 02:06:00,
2013-02-09 21:11:00,38.8,27.3,30.11,NE,45,4.6,4.6,63,0.00,CLR,,0.00,WeatherDisplay:10.37,2013-02-10 02:11:00,
2013-02-09 21:16:00,38.8,27.3,30.11,East,90,3.5,3.5,63,0.00,CLR,,0.00,WeatherDisplay:10.37,2013-02-10 02:16:00,
2013-02-09 21:18:00,39.6,2.8,30.02,East,97,2.0,3.0,21,0.00,CLR,CLR,0.00,WeatherDisplay:10.37,2013-02-10 02:18:00,
2013-02-09 21:21:00,38.8,27.3,30.11,ENE,68,2.4,2.4,63,0.00,CLR,,0.00,WeatherDisplay:10.37,2013-02-10 02:21:00,
2013-02-09 21:26:00,39.0,27.5,30.11,NE,45,4.6,4.6,63,0.00,CLR,,0.00,WeatherDisplay:10.37,2013-02-10 02:26:00,
2013-02-09 21:31:00,39.0,27.5,30.11,NE,45,3.5,3.5,63,0.00,CLR,,0.00,WeatherDisplay:10.37,2013-02-10 02:31:00,
2013-02-09 21:33:00,40.3,3.4,30.02,East,92,2.0,3.0,21,0.00,CLR,CLR,0.00,WeatherDisplay:10.37,2013-02-10 02:33:00,
2013-02-09 21:36:00,39.2,27.7,30.11,NE,45,3.5,3.5,63,0.00,CLR,,0.00,WeatherDisplay:10.37,2013-02-10 02:36:00,
2013-02-09 21:41:00,39.2,27.7,30.11,East,90,3.5,3.5,63,0.00,CLR,,0.00,WeatherDisplay:10.37,2013-02-10 02:41:00,
2013-02-09 21:46:00,39.2,27.7,30.11,ENE,68,4.6,4.6,63,0.00,CLR,,0.00,WeatherDisplay:10.37,2013-02-10 02:46:00,
2013-02-09 21:48:00,41.2,4.1,29.99,ESE,102,2.0,4.0,21,0.00,CLR,CLR,0.00,WeatherDisplay:10.37,2013-02-10 02:48:00,
2013-02-09 21:51:00,39.2,27.7,30.11,ENE,68,3.5,3.5,63,0.00,CLR,,0.00,WeatherDisplay:10.37,2013-02-10 02:51:00,
2013-02-09 21:56:00,39.2,27.7,30.11,NE,45,3.5,3.5,63,0.00,CLR,,0.00,WeatherDisplay:10.37,2013-02-10 02:56:00,
2013-02-09 22:00:00,27.0,7.9,30.08,North,7,0.0,0.0,44,0.00,CL,CL,0.00,WeatherDisplay:10.37,2013-02-10 03:00:00,
2013-02-09 22:01:00,39.2,27.7,30.11,East,90,3.5,3.5,63,0.00,CLR,,0.00,WeatherDisplay:10.37,2013-02-10 03:01:00,
2013-02-09 22:03:00,41.2,4.1,30.02,South,176,1.0,3.0,21,0.00,CLR,CLR,0.00,WeatherDisplay:10.37,2013-02-10 03:03:00,
2013-02-09 22:06:00,39.2,27.7,30.11,NE,45,3.5,3.5,63,0.00,CLR,,0.00,WeatherDisplay:10.37,2013-02-10 03:06:00,
2013-02-09 22:11:00,39.2,27.7,30.11,NE,45,3.5,3.5,63,0.00,CLR,,0.00,WeatherDisplay:10.37,2013-02-10 03:11:00,
2013-02-09 22:16:00,39.0,27.5,30.11,NE,45,3.5,3.5,63,0.00,OVC,,0.00,WeatherDisplay:10.37,2013-02-10 03:16:00,
2013-02-09 22:18:00,41.2,4.1,30.02,SSE,166,3.0,3.0,21,0.00,CLR,CLR,0.00,WeatherDisplay:10.37,2013-02-10 03:18:00,
2013-02-09 22:21:00,39.0,27.5,30.08,NE,45,3.8,3.8,63,0.00,OVC,,0.00,WeatherDisplay:10.37,2013-02-10 03:21:00,
2013-02-09 22:26:00,38.8,27.3,30.08,ENE,68,3.8,3.8,63,0.00,OVC,,0.00,WeatherDisplay:10.37,2013-02-10 03:26:00,
2013-02-09 22:31:00,38.8,27.3,30.08,NE,45,3.5,3.5,63,0.00,OVC,,0.00,WeatherDisplay:10.37,2013-02-10 03:31:00,
2013-02-09 22:33:00,41.4,4.3,30.02,SE,135,2.0,3.0,21,0.00,CLR,CLR,0.00,WeatherDisplay:10.37,2013-02-10 03:33:00,
2013-02-09 22:36:00,38.7,27.1,30.08,NE,45,3.5,3.5,63,0.00,OVC,,0.00,WeatherDisplay:10.37,2013-02-10 03:36:00,
2013-02-09 22:41:00,38.7,27.1,30.08,NE,45,4.6,4.6,63,0.00,OVC,,0.00,WeatherDisplay:10.37,2013-02-10 03:41:00,
2013-02-09 22:46:00,38.5,27.0,30.08,NE,45,4.6,4.6,63,0.00,OVC,,0.00,WeatherDisplay:10.37,2013-02-10 03:46:00,
2013-02-09 22:48:00,41.5,4.4,30.02,SE,135,1.0,2.0,21,0.00,CLR,CLR,0.00,WeatherDisplay:10.37,2013-02-10 03:48:00,
2013-02-09 22:52:00,38.1,26.6,30.08,NE,45,3.8,3.8,63,0.00,OVC,,0.00,WeatherDisplay:10.37,2013-02-10 03:52:00,
2013-02-09 22:57:00,37.9,26.5,30.08,NE,45,3.6,3.6,63,0.00,OVC,,0.00,WeatherDisplay:10.37,2013-02-10 03:57:00,
2013-02-09 23:00:00,27.9,8.2,30.05,North,6,0.0,0.0,43,0.00,CL,CL,0.00,WeatherDisplay:10.37,2013-02-10 04:00:00,
2013-02-09 23:02:00,37.9,26.5,30.08,NE,45,4.6,4.6,63,0.00,OVC,,0.00,WeatherDisplay:10.37,2013-02-10 04:02:00,
2013-02-09 23:03:00,41.7,4.6,30.02,SE,135,2.0,2.0,21,0.00,CLR,CLR,0.00,WeatherDisplay:10.37,2013-02-10 04:03:00,
2013-02-09 23:07:00,37.9,26.5,30.08,NE,45,6.0,6.0,63,0.00,OVC,,0.00,WeatherDisplay:10.37,2013-02-10 04:07:00,
2013-02-09 23:12:00,37.9,26.5,30.08,East,90,3.5,3.5,63,0.00,OVC,,0.00,WeatherDisplay:10.37,2013-02-10 04:12:00,
2013-02-09 23:17:00,37.9,26.5,30.08,NE,45,5.8,5.8,63,0.00,OVC,,0.00,WeatherDisplay:10.37,2013-02-10 04:17:00,
2013-02-09 23:18:00,41.7,4.6,29.99,SE,137,1.0,2.0,21,0.00,CLR,CLR,0.00,WeatherDisplay:10.37,2013-02-10 04:18:00,
2013-02-09 23:22:00,37.8,26.3,30.08,ENE,68,2.6,2.6,63,0.00,OVC,,0.00,WeatherDisplay:10.37,2013-02-10 04:22:00,
2013-02-09 23:27:00,37.8,26.3,30.08,NE,45,4.6,4.6,63,0.00,OVC,,0.00,WeatherDisplay:10.37,2013-02-10 04:27:00,
2013-02-09 23:32:00,37.6,26.1,30.08,NE,45,3.5,3.5,63,0.00,OVC,,0.00,WeatherDisplay:10.37,2013-02-10 04:32:00,
2013-02-09 23:33:00,41.9,4.7,30.02,SE,139,1.0,3.0,21,0.00,CLR,CLR,0.00,WeatherDisplay:10.37,2013-02-10 04:33:00,
2013-02-09 23:37:00,37.6,26.1,30.08,NE,45,3.5,3.5,63,0.00,OVC,,0.00,WeatherDisplay:10.37,2013-02-10 04:37:00,
2013-02-09 23:42:00,37.4,25.9,30.08,NE,45,3.6,3.6,63,0.00,OVC,,0.00,WeatherDisplay:10.37,2013-02-10 04:42:00,
2013-02-09 23:47:00,37.4,25.9,30.08,East,90,4.6,4.6,63,0.00,OVC,,0.00,WeatherDisplay:10.37,2013-02-10 04:47:00,
2013-02-09 23:48:00,42.1,4.9,30.05,SE,135,1.0,2.0,21,0.00,CLR,CLR,0.00,WeatherDisplay:10.37,2013-02-10 04:48:00,
2013-02-09 23:52:00,37.2,26.2,30.08,NE,45,2.4,2.4,64,0.00,OVC,,0.00,WeatherDisplay:10.37,2013-02-10 04:52:00,
2013-02-09 23:57:00,37.4,25.9,30.08,NE,45,3.5,3.5,63,0.00,OVC,,0.00,WeatherDisplay:10.37,2013-02-10 04:57:00,